createdAt,value
2023-02-23T00:01:44.909Z,47.17
2023-02-23T00:04:14.496Z,45.98
2023-02-23T00:06:43.884Z,47.83
2023-02-23T00:09:15.062Z,47.50
2023-02-23T00:11:44.864Z,48.65
2023-02-23T00:14:14.684Z,47.50
2023-02-23T00:16:47.134Z,46.68
2023-02-23T00:21:45.544Z,45.63
2023-02-23T00:24:16.884Z,47.15
2023-02-23T00:26:48.263Z,47.38
2023-02-23T00:29:20.783Z,47.50
2023-02-23T00:34:24.196Z,45.75
2023-02-23T00:36:55.497Z,45.60
2023-02-23T00:39:26.945Z,46.65
2023-02-23T00:41:57.231Z,48.20
2023-02-23T00:44:26.470Z,48.85
2023-02-23T00:46:55.967Z,49.70
2023-02-23T00:49:25.300Z,50.45
2023-02-23T00:51:55.077Z,50.38
2023-02-23T00:54:24.359Z,49.42
2023-02-23T00:56:53.710Z,50.12
2023-02-23T00:59:24.514Z,50.78
2023-02-23T01:01:54.073Z,49.70
2023-02-23T01:04:26.055Z,51.85
2023-02-23T01:06:57.061Z,51.73
2023-02-23T01:09:28.368Z,51.98
2023-02-23T01:12:00.020Z,51.65
2023-02-23T01:14:31.318Z,51.47
2023-02-23T01:17:01.378Z,51.18
2023-02-23T01:19:32.247Z,51.70
2023-02-23T01:22:04.664Z,52.33
2023-02-23T01:24:34.248Z,52.05
2023-02-23T01:27:05.338Z,51.85
2023-02-23T01:29:36.083Z,51.28
2023-02-23T01:32:05.819Z,51.28
2023-02-23T01:34:35.273Z,50.40
2023-02-23T01:37:04.810Z,51.53
2023-02-23T01:39:34.244Z,52.45
2023-02-23T01:42:05.427Z,51.37
2023-02-23T01:44:39.605Z,52.40
2023-02-23T01:47:08.995Z,53.55
2023-02-23T01:49:38.393Z,52.35
2023-02-23T01:52:12.578Z,52.25
2023-02-23T01:54:51.421Z,52.35
2023-02-23T01:57:24.504Z,52.20
2023-02-23T01:59:55.114Z,51.23
2023-02-23T02:02:29.190Z,52.23
2023-02-23T02:05:01.976Z,52.00
2023-02-23T02:07:34.324Z,51.95
2023-02-23T02:10:14.569Z,52.93
2023-02-23T02:12:51.333Z,49.42
2023-02-23T02:15:23.676Z,52.85
2023-02-23T02:18:19.008Z,52.58
2023-02-23T02:21:11.854Z,48.85
2023-02-23T02:24:04.301Z,46.60
2023-02-23T02:26:55.318Z,47.73
2023-02-23T02:29:56.118Z,47.30
2023-02-23T02:32:50.042Z,50.98
2023-02-23T02:35:47.090Z,47.98
2023-02-23T02:38:27.900Z,50.20
2023-02-23T02:41:09.147Z,47.08
2023-02-23T02:43:58.566Z,47.85
2023-02-23T02:46:33.659Z,45.90
2023-02-23T02:49:06.919Z,47.20
2023-02-23T02:51:49.092Z,49.58
2023-02-23T02:54:33.520Z,49.55
2023-02-23T02:57:04.972Z,48.05
2023-02-23T03:00:03.679Z,51.63
2023-02-23T03:02:52.870Z,52.75
2023-02-23T03:05:43.192Z,50.52
2023-02-23T03:09:06.752Z,52.03
2023-02-23T03:12:03.485Z,52.10
2023-02-23T03:15:09.308Z,54.93
2023-02-23T03:18:09.665Z,53.98
2023-02-23T03:21:02.806Z,54.58
2023-02-23T03:24:03.121Z,53.02
2023-02-23T03:26:56.507Z,53.83
2023-02-23T03:29:54.675Z,54.00
2023-02-23T03:32:48.161Z,52.70
2023-02-23T03:35:59.750Z,53.00
2023-02-23T03:39:02.621Z,52.75
2023-02-23T03:41:50.282Z,53.45
2023-02-23T03:44:40.481Z,52.20
2023-02-23T03:47:28.887Z,53.50
2023-02-23T03:50:17.317Z,51.85
2023-02-23T03:53:07.561Z,52.65
2023-02-23T03:55:56.916Z,53.35
2023-02-23T03:58:59.350Z,51.18
2023-02-23T04:01:46.759Z,51.60
2023-02-23T04:04:35.123Z,50.35
2023-02-23T04:07:22.997Z,49.90
2023-02-23T04:10:10.677Z,47.43
2023-02-23T04:13:03.471Z,48.52
2023-02-23T04:15:37.300Z,49.00
2023-02-23T04:18:07.602Z,49.53
2023-02-23T04:20:37.117Z,50.43
2023-02-23T04:23:06.403Z,48.78
2023-02-23T04:25:36.026Z,51.83
2023-02-23T04:28:05.410Z,52.70
2023-02-23T04:30:35.046Z,53.15
2023-02-23T04:33:04.486Z,50.88
2023-02-23T04:35:34.109Z,51.33
2023-02-23T04:38:03.655Z,52.08
2023-02-23T04:40:33.588Z,50.10
2023-02-23T04:43:02.870Z,44.63
2023-02-23T04:45:32.261Z,44.03
2023-02-23T04:48:01.878Z,44.48
2023-02-23T04:50:32.597Z,49.27
2023-02-23T04:53:02.023Z,46.90
2023-02-23T04:55:32.816Z,48.13
2023-02-23T04:58:03.281Z,47.53
2023-02-23T05:00:34.060Z,50.17
2023-02-23T05:03:03.468Z,50.90
2023-02-23T05:05:33.508Z,51.00
2023-02-23T05:08:02.914Z,50.00
2023-02-23T05:10:32.149Z,51.10
2023-02-23T05:13:01.483Z,51.98
2023-02-23T05:15:30.932Z,52.25
2023-02-23T05:18:00.392Z,54.15
2023-02-23T05:20:29.717Z,51.02
2023-02-23T05:22:59.438Z,51.92
2023-02-23T05:25:28.689Z,50.38
2023-02-23T05:27:58.103Z,49.58
2023-02-23T05:30:27.497Z,51.85
2023-02-23T05:32:56.966Z,52.65
2023-02-23T05:35:26.401Z,51.88
2023-02-23T05:37:55.981Z,54.10
2023-02-23T05:40:25.586Z,52.95
2023-02-23T05:42:58.373Z,54.67
2023-02-23T05:45:27.623Z,50.12
2023-02-23T05:47:57.419Z,50.10
2023-02-23T05:50:27.175Z,45.35
2023-02-23T05:52:56.710Z,48.33
2023-02-23T05:55:26.062Z,46.85
2023-02-23T05:57:56.165Z,46.73
2023-02-23T06:00:25.677Z,46.80
2023-02-23T06:02:55.674Z,45.15
2023-02-23T06:05:25.199Z,44.55
2023-02-23T06:07:54.413Z,44.13
2023-02-23T06:10:24.075Z,46.28
2023-02-23T06:12:53.296Z,48.08
2023-02-23T06:15:22.666Z,47.08
2023-02-23T06:17:51.948Z,49.38
2023-02-23T06:20:26.145Z,49.80
2023-02-23T06:22:55.475Z,49.30
2023-02-23T06:25:25.442Z,50.35
2023-02-23T06:27:57.558Z,46.60
2023-02-23T06:30:27.100Z,50.75
2023-02-23T06:32:56.783Z,49.00
2023-02-23T06:35:27.659Z,50.48
2023-02-23T06:37:57.428Z,48.63
2023-02-23T06:40:26.945Z,51.88
2023-02-23T06:42:56.543Z,50.67
2023-02-23T06:45:25.786Z,51.15
2023-02-23T06:47:55.389Z,49.00
2023-02-23T06:50:24.733Z,50.35
2023-02-23T06:52:54.461Z,52.10
2023-02-23T06:55:24.287Z,50.30
2023-02-23T06:57:54.585Z,50.35
2023-02-23T07:00:24.862Z,47.15
2023-02-23T07:02:54.187Z,48.40
2023-02-23T07:05:23.737Z,47.17
2023-02-23T07:07:53.308Z,51.45
2023-02-23T07:10:22.858Z,53.92
2023-02-23T07:12:54.192Z,58.08
2023-02-23T07:15:23.508Z,55.48
2023-02-23T07:17:53.009Z,53.42
2023-02-23T07:20:22.905Z,53.85
2023-02-23T07:22:52.771Z,54.30
2023-02-23T07:25:22.547Z,52.93
2023-02-23T07:27:55.703Z,52.17
2023-02-23T07:30:27.759Z,51.68
2023-02-23T07:33:01.278Z,53.35
2023-02-23T07:35:39.142Z,53.15
2023-02-23T07:38:18.848Z,52.15
2023-02-23T07:40:55.154Z,52.25
2023-02-23T07:43:39.107Z,50.00
2023-02-23T07:46:09.225Z,50.17
2023-02-23T07:48:42.625Z,50.43
2023-02-23T07:51:27.821Z,52.25
2023-02-23T07:53:57.488Z,52.70
2023-02-23T07:56:27.528Z,51.05
2023-02-23T07:58:56.834Z,52.03
2023-02-23T08:01:26.522Z,52.27
2023-02-23T08:03:56.069Z,52.48
2023-02-23T08:06:25.768Z,52.00
2023-02-23T08:08:55.648Z,52.65
2023-02-23T08:11:25.230Z,52.05
2023-02-23T08:13:55.185Z,52.38
2023-02-23T08:16:24.494Z,51.55
2023-02-23T08:18:54.054Z,50.83
2023-02-23T08:21:23.327Z,50.25
2023-02-23T08:23:52.658Z,51.98
2023-02-23T08:26:25.837Z,52.25
2023-02-23T08:28:56.124Z,50.85
2023-02-23T08:31:27.286Z,50.20
2023-02-23T08:33:56.666Z,51.25
2023-02-23T08:36:26.519Z,51.37
2023-02-23T08:38:55.736Z,47.98
2023-02-23T08:41:25.934Z,48.45
2023-02-23T08:43:55.660Z,47.88
2023-02-23T08:46:25.472Z,45.00
2023-02-23T08:48:54.711Z,44.83
2023-02-23T08:51:24.256Z,48.25
2023-02-23T08:53:53.769Z,46.83
2023-02-23T08:56:24.778Z,45.10
2023-02-23T08:58:54.298Z,44.08
2023-02-23T09:01:23.569Z,42.40
2023-02-23T09:03:53.122Z,43.02
2023-02-23T09:06:25.438Z,42.45
2023-02-23T09:08:56.256Z,39.30
2023-02-23T09:11:25.575Z,36.55
2023-02-23T09:13:55.531Z,37.78
2023-02-23T09:16:25.444Z,36.58
2023-02-23T09:18:54.953Z,37.05
2023-02-23T09:21:26.034Z,36.20
2023-02-23T09:23:56.250Z,36.88
2023-02-23T09:26:27.655Z,35.95
2023-02-23T09:28:58.828Z,34.45
2023-02-23T09:31:28.735Z,34.27
2023-02-23T09:33:59.642Z,34.23
2023-02-23T09:36:31.581Z,33.15
2023-02-23T09:39:01.485Z,33.23
2023-02-23T09:41:46.052Z,31.20
2023-02-23T09:44:39.745Z,32.93
2023-02-23T09:47:30.821Z,30.55
2023-02-23T09:50:05.823Z,29.00
2023-02-23T09:52:38.959Z,28.70
2023-02-23T09:55:11.685Z,28.15
2023-02-23T09:57:44.083Z,27.58
2023-02-23T10:00:19.527Z,27.25
2023-02-23T10:03:04.150Z,25.88
2023-02-23T10:05:36.575Z,26.05
2023-02-23T10:08:11.617Z,25.37
2023-02-23T10:11:02.339Z,25.10
2023-02-23T10:13:45.779Z,23.87
2023-02-23T10:16:36.396Z,23.05
2023-02-23T10:19:12.998Z,21.27
2023-02-23T10:21:45.075Z,22.25
2023-02-23T10:24:31.456Z,22.27
2023-02-23T10:27:20.915Z,22.52
2023-02-23T10:29:52.698Z,22.85
2023-02-23T10:32:25.321Z,22.27
2023-02-23T10:34:56.883Z,21.48
2023-02-23T10:37:27.704Z,22.27
2023-02-23T10:39:57.245Z,21.30
2023-02-23T10:42:30.069Z,20.85
2023-02-23T10:45:00.980Z,21.12
2023-02-23T10:47:32.518Z,19.87
2023-02-23T10:50:02.457Z,17.70
2023-02-23T10:52:41.710Z,16.82
2023-02-23T10:55:10.841Z,17.82
2023-02-23T10:57:41.315Z,17.70
2023-02-23T11:00:24.147Z,17.05
2023-02-23T11:05:40.088Z,16.75
2023-02-23T11:08:33.269Z,17.55
2023-02-23T11:11:19.225Z,15.18
2023-02-23T11:13:52.238Z,14.98
2023-02-23T11:16:26.793Z,14.18
2023-02-23T11:19:01.575Z,12.55
2023-02-23T11:21:36.986Z,12.75
2023-02-23T11:24:09.550Z,13.60
2023-02-23T11:29:29.680Z,13.78
2023-02-23T11:32:00.162Z,12.33
2023-02-23T11:34:33.147Z,12.98
2023-02-23T11:37:07.976Z,12.10
2023-02-23T11:39:38.912Z,12.40
2023-02-23T11:42:17.528Z,11.43
2023-02-23T11:44:52.343Z,11.50
2023-02-23T11:47:23.337Z,10.80
2023-02-23T11:49:53.212Z,11.12
2023-02-23T11:52:23.802Z,10.93
2023-02-23T11:54:58.903Z,10.53
2023-02-23T11:57:31.998Z,10.35
2023-02-23T12:00:04.600Z,10.40
2023-02-23T12:02:40.697Z,10.50
2023-02-23T12:05:25.331Z,10.28
2023-02-23T12:08:09.646Z,10.30
2023-02-23T12:10:51.183Z,9.08
2023-02-23T12:13:29.403Z,9.83
2023-02-23T12:16:21.741Z,9.83
2023-02-23T12:19:03.306Z,9.83
2023-02-23T12:21:35.915Z,10.43
2023-02-23T12:26:52.730Z,9.70
2023-02-23T12:29:59.523Z,10.28
2023-02-23T12:32:32.492Z,11.43
2023-02-23T12:35:07.990Z,10.23
2023-02-23T12:37:46.140Z,10.18
2023-02-23T12:40:18.458Z,10.30
2023-02-23T12:42:56.847Z,10.03
2023-02-23T12:45:32.085Z,9.65
2023-02-23T12:48:10.042Z,8.30
2023-02-23T12:50:43.615Z,6.70
2023-02-23T12:53:19.037Z,7.00
2023-02-23T12:56:01.670Z,7.12
2023-02-23T12:58:50.304Z,7.47
2023-02-23T13:01:27.167Z,7.33
2023-02-23T13:04:08.992Z,8.53
2023-02-23T13:06:53.422Z,9.20
2023-02-23T13:09:29.208Z,8.53
2023-02-23T13:12:10.476Z,9.10
2023-02-23T13:15:08.338Z,9.10
2023-02-23T13:17:43.867Z,10.25
2023-02-23T13:20:28.764Z,10.50
2023-02-23T13:23:01.182Z,11.05
2023-02-23T13:25:54.201Z,10.28
2023-02-23T13:30:53.914Z,10.28
2023-02-23T13:33:35.011Z,10.85
2023-02-23T13:35:58.267Z,10.15
2023-02-23T13:38:33.861Z,9.98
2023-02-23T13:41:12.806Z,8.78
2023-02-23T13:43:52.226Z,9.18
2023-02-23T13:46:48.465Z,9.23
2023-02-23T13:49:39.360Z,8.88
2023-02-23T13:52:14.566Z,9.25
2023-02-23T13:54:57.053Z,8.75
2023-02-23T13:57:28.238Z,9.28
2023-02-23T13:59:58.479Z,8.95
2023-02-23T14:02:38.882Z,9.03
2023-02-23T14:05:14.139Z,9.65
2023-02-23T14:07:45.221Z,9.68
2023-02-23T14:10:25.670Z,10.50
2023-02-23T14:13:07.356Z,10.53
2023-02-23T14:15:40.212Z,11.60
2023-02-23T14:18:26.253Z,12.37
2023-02-23T14:21:18.835Z,11.65
2023-02-23T14:24:15.107Z,12.20
2023-02-23T14:26:47.384Z,12.50
2023-02-23T14:29:20.548Z,12.88
2023-02-23T14:32:03.651Z,12.10
2023-02-23T14:34:52.305Z,13.18
2023-02-23T14:37:27.077Z,13.58
2023-02-23T14:40:00.710Z,13.35
2023-02-23T14:42:30.361Z,12.18
2023-02-23T14:45:02.763Z,12.00
2023-02-23T14:47:35.314Z,11.80
2023-02-23T14:50:04.883Z,12.28
2023-02-23T14:52:40.626Z,10.63
2023-02-23T14:55:15.753Z,11.33
2023-02-23T14:57:45.620Z,11.33
2023-02-23T15:00:31.034Z,10.72
2023-02-23T15:03:10.431Z,10.63
2023-02-23T15:05:54.808Z,10.85
2023-02-23T15:08:26.316Z,10.80
2023-02-23T15:11:07.486Z,11.65
2023-02-23T15:16:11.933Z,11.22
2023-02-23T15:18:44.064Z,10.80
2023-02-23T15:21:19.193Z,12.07
2023-02-23T15:23:54.837Z,11.40
2023-02-23T15:26:31.068Z,10.95
2023-02-23T15:29:14.638Z,11.20
2023-02-23T15:31:52.839Z,10.88
2023-02-23T15:34:25.166Z,10.45
2023-02-23T15:37:00.511Z,10.93
2023-02-23T15:39:48.215Z,11.08
2023-02-23T15:42:19.613Z,11.18
2023-02-23T15:44:57.529Z,12.00
2023-02-23T15:47:29.483Z,12.30
2023-02-23T15:50:05.620Z,13.22
2023-02-23T15:52:36.464Z,14.75
2023-02-23T15:55:10.246Z,15.70
2023-02-23T15:57:57.169Z,15.70
2023-02-23T16:00:40.808Z,15.05
2023-02-23T16:03:29.859Z,16.45
2023-02-23T16:06:11.323Z,16.93
2023-02-23T16:08:43.858Z,17.57
2023-02-23T16:13:46.399Z,17.60
2023-02-23T16:16:19.657Z,17.57
2023-02-23T16:18:53.921Z,17.48
2023-02-23T16:21:25.300Z,17.85
2023-02-23T16:23:55.676Z,17.75
2023-02-23T16:26:29.459Z,18.27
2023-02-23T16:29:00.853Z,18.55
2023-02-23T16:31:48.597Z,17.98
2023-02-23T16:34:29.681Z,17.55
2023-02-23T16:37:01.626Z,17.70
2023-02-23T16:39:34.332Z,19.17
2023-02-23T16:42:04.016Z,11.18
2023-02-23T16:44:42.900Z,7.78
2023-02-23T16:47:08.246Z,7.70
2023-02-23T16:49:37.748Z,6.37
2023-02-23T16:52:11.933Z,4.62
2023-02-23T16:54:41.163Z,5.17
2023-02-23T16:57:14.079Z,4.65
2023-02-23T16:59:43.319Z,4.90
2023-02-23T17:02:14.138Z,4.78
2023-02-23T17:04:45.961Z,4.83
2023-02-23T17:07:17.195Z,4.70
2023-02-23T17:09:47.885Z,4.37
2023-02-23T17:12:21.933Z,4.62
2023-02-23T17:14:51.204Z,4.08
2023-02-23T17:17:21.814Z,4.37
2023-02-23T17:19:51.064Z,3.72
2023-02-23T17:22:20.436Z,3.92
2023-02-23T17:24:49.873Z,3.83
2023-02-23T17:27:19.211Z,4.08
2023-02-23T17:29:48.432Z,4.70
2023-02-23T17:32:18.229Z,3.92
2023-02-23T17:34:49.337Z,4.08
2023-02-23T17:37:21.824Z,4.10
2023-02-23T17:42:20.674Z,3.62
2023-02-23T17:44:49.971Z,3.80
2023-02-23T17:47:20.047Z,4.75
2023-02-23T17:49:49.349Z,4.92
2023-02-23T17:52:19.605Z,4.90
2023-02-23T17:54:49.097Z,4.62
2023-02-23T17:57:18.696Z,4.65
2023-02-23T17:59:47.971Z,5.35
2023-02-23T18:02:20.574Z,5.40
2023-02-23T18:04:51.434Z,4.72
2023-02-23T18:07:22.280Z,4.35
2023-02-23T18:09:51.739Z,4.30
2023-02-23T18:12:21.776Z,4.47
2023-02-23T18:14:51.095Z,4.87
2023-02-23T18:17:20.680Z,4.03
2023-02-23T18:19:51.056Z,4.65
2023-02-23T18:22:20.871Z,4.03
2023-02-23T18:24:50.086Z,4.67
2023-02-23T18:27:19.423Z,4.20
2023-02-23T18:29:48.636Z,4.17
2023-02-23T18:32:18.421Z,4.80
2023-02-23T18:34:47.973Z,3.90
2023-02-23T18:37:18.888Z,5.00
2023-02-23T18:39:49.899Z,3.98
2023-02-23T18:42:19.404Z,4.53
2023-02-23T18:44:48.958Z,4.25
2023-02-23T18:47:18.299Z,3.72
2023-02-23T18:49:47.682Z,4.00
2023-02-23T18:52:17.022Z,3.72
2023-02-23T18:54:46.269Z,3.40
2023-02-23T18:57:16.034Z,4.25
2023-02-23T18:59:47.479Z,3.52
2023-02-23T19:02:18.713Z,3.72
2023-02-23T19:04:48.112Z,4.00
2023-02-23T19:07:18.738Z,3.55
2023-02-23T19:09:48.187Z,3.12
2023-02-23T19:12:17.408Z,3.80
2023-02-23T19:14:49.842Z,3.17
2023-02-23T19:17:17.946Z,2.90
2023-02-23T19:19:47.347Z,3.40
2023-02-23T19:22:17.191Z,3.92
2023-02-23T19:24:47.085Z,2.70
2023-02-23T19:27:17.612Z,3.72
2023-02-23T19:29:47.652Z,3.22
2023-02-23T19:32:18.101Z,3.67
2023-02-23T19:34:47.633Z,3.50
2023-02-23T19:37:16.876Z,3.15
2023-02-23T19:39:46.386Z,3.15
2023-02-23T19:42:17.322Z,3.60
2023-02-23T19:44:46.812Z,3.10
2023-02-23T19:47:16.120Z,3.42
2023-02-23T19:49:45.814Z,2.98
2023-02-23T19:52:15.149Z,4.53
2023-02-23T19:54:44.788Z,2.98
2023-02-23T19:57:14.112Z,3.00
2023-02-23T19:59:43.815Z,4.03
2023-02-23T20:02:13.339Z,2.58
2023-02-23T20:04:42.770Z,3.25
2023-02-23T20:07:12.048Z,3.40
2023-02-23T20:09:41.609Z,3.42
2023-02-23T20:12:10.978Z,3.42
2023-02-23T20:14:41.615Z,3.42
2023-02-23T20:17:12.514Z,3.45
2023-02-23T20:19:41.902Z,3.75
2023-02-23T20:22:11.309Z,3.17
2023-02-23T20:24:40.650Z,3.42
2023-02-23T20:27:10.259Z,3.30
2023-02-23T20:29:39.949Z,3.40
2023-02-23T20:32:09.716Z,3.02
2023-02-23T20:34:39.393Z,3.05
2023-02-23T20:37:09.150Z,3.27
2023-02-23T20:39:38.555Z,3.40
2023-02-23T20:44:48.294Z,3.70
2023-02-23T20:47:17.725Z,3.70
2023-02-23T20:49:46.990Z,3.62
2023-02-23T20:52:16.500Z,3.37
2023-02-23T20:54:46.148Z,4.20
2023-02-23T20:57:15.496Z,4.05
2023-02-23T20:59:45.239Z,3.70
2023-02-23T21:02:15.444Z,3.70
2023-02-23T21:04:45.322Z,3.27
2023-02-23T21:07:14.770Z,3.80
2023-02-23T21:09:44.214Z,3.72
2023-02-23T21:12:13.943Z,3.72
2023-02-23T21:14:43.653Z,3.80
2023-02-23T21:17:12.941Z,3.45
2023-02-23T21:19:42.233Z,4.03
2023-02-23T21:22:13.096Z,4.00
2023-02-23T21:24:43.510Z,3.45
2023-02-23T21:27:13.173Z,3.40
2023-02-23T21:29:43.823Z,3.42
2023-02-23T21:32:14.493Z,3.90
2023-02-23T21:34:45.929Z,3.75
2023-02-23T21:37:16.033Z,4.12
2023-02-23T21:39:47.072Z,3.70
2023-02-23T21:42:16.450Z,4.08
2023-02-23T21:44:50.025Z,4.03
2023-02-23T21:47:21.190Z,4.30
2023-02-23T21:49:55.256Z,4.35
2023-02-23T21:52:24.919Z,4.45
2023-02-23T21:54:55.095Z,3.80
2023-02-23T21:57:26.528Z,4.20
2023-02-23T21:59:57.564Z,3.62
2023-02-23T22:02:30.030Z,4.00
2023-02-23T22:05:01.330Z,4.00
2023-02-23T22:07:32.323Z,3.77
2023-02-23T22:10:03.236Z,4.55
2023-02-23T22:12:35.325Z,4.53
2023-02-23T22:15:09.612Z,4.30
2023-02-23T22:17:39.626Z,5.45
2023-02-23T22:20:23.037Z,4.20
2023-02-23T22:22:52.698Z,4.67
2023-02-23T22:25:22.099Z,5.58
2023-02-23T22:28:18.935Z,4.37
2023-02-23T22:30:52.170Z,4.80
2023-02-23T22:33:26.379Z,4.62
2023-02-23T22:35:58.165Z,4.42
2023-02-23T22:38:27.562Z,4.33
2023-02-23T22:40:57.308Z,4.03
2023-02-23T22:43:27.611Z,3.98
2023-02-23T22:45:58.412Z,4.25
2023-02-23T22:48:28.779Z,3.27
2023-02-23T22:50:58.920Z,4.17
2023-02-23T22:53:28.986Z,3.17
2023-02-23T22:55:59.614Z,4.17
2023-02-23T22:58:29.140Z,3.52
2023-02-23T23:01:05.801Z,3.37
2023-02-23T23:03:45.109Z,3.67
2023-02-23T23:06:22.208Z,3.15
2023-02-23T23:08:54.648Z,3.17
2023-02-23T23:11:26.775Z,3.67
2023-02-23T23:14:00.529Z,3.40
2023-02-23T23:16:33.370Z,3.75
2023-02-23T23:19:07.497Z,3.27
2023-02-23T23:21:37.367Z,3.60
2023-02-23T23:24:08.142Z,2.80
2023-02-23T23:26:39.784Z,3.33
2023-02-23T23:29:12.067Z,3.20
2023-02-23T23:31:45.950Z,3.20
2023-02-23T23:34:22.476Z,3.30
2023-02-23T23:36:53.372Z,3.70
2023-02-23T23:39:26.458Z,3.27
2023-02-23T23:41:55.767Z,3.30
2023-02-23T23:44:29.945Z,2.92
2023-02-23T23:46:59.684Z,2.95
2023-02-23T23:49:29.195Z,2.80
2023-02-23T23:51:58.399Z,2.75
2023-02-23T23:54:31.093Z,2.92
2023-02-23T23:57:01.982Z,2.98
2023-02-23T23:59:32.670Z,2.47
